sensor_id;sensor_type;location;lat;lon;timestamp;temperature;humidity
38265;DHT22;24062;47.480;8.768;2023-10-09T00:01:51;23.80;61.10
38265;DHT22;24062;47.480;8.768;2023-10-09T00:04:19;23.80;61.20
38265;DHT22;24062;47.480;8.768;2023-10-09T00:06:47;23.80;61.20
38265;DHT22;24062;47.480;8.768;2023-10-09T00:09:14;23.80;61.20
38265;DHT22;24062;47.480;8.768;2023-10-09T00:11:52;23.70;61.10
38265;DHT22;24062;47.480;8.768;2023-10-09T00:14:22;23.70;61.10
38265;DHT22;24062;47.480;8.768;2023-10-09T00:16:50;23.70;61.20
38265;DHT22;24062;47.480;8.768;2023-10-09T00:19:22;23.70;61.20
38265;DHT22;24062;47.480;8.768;2023-10-09T00:21:56;23.70;61.20
38265;DHT22;24062;47.480;8.768;2023-10-09T00:24:24;23.70;61.20
38265;DHT22;24062;47.480;8.768;2023-10-09T00:26:53;23.70;61.30
38265;DHT22;24062;47.480;8.768;2023-10-09T00:29:21;23.70;61.30
38265;DHT22;24062;47.480;8.768;2023-10-09T00:31:51;23.60;61.30
38265;DHT22;24062;47.480;8.768;2023-10-09T00:34:29;23.60;61.20
38265;DHT22;24062;47.480;8.768;2023-10-09T00:37:05;23.60;61.30
38265;DHT22;24062;47.480;8.768;2023-10-09T00:39:36;23.60;61.30
38265;DHT22;24062;47.480;8.768;2023-10-09T00:42:10;23.60;61.40
38265;DHT22;24062;47.480;8.768;2023-10-09T00:44:41;23.60;61.40
38265;DHT22;24062;47.480;8.768;2023-10-09T00:47:09;23.50;61.30
38265;DHT22;24062;47.480;8.768;2023-10-09T00:49:49;23.60;61.40
38265;DHT22;24062;47.480;8.768;2023-10-09T00:52:16;23.60;61.50
38265;DHT22;24062;47.480;8.768;2023-10-09T00:54:49;23.50;61.40
38265;DHT22;24062;47.480;8.768;2023-10-09T00:57:19;23.50;61.50
38265;DHT22;24062;47.480;8.768;2023-10-09T00:59:54;23.50;61.50
38265;DHT22;24062;47.480;8.768;2023-10-09T01:02:26;23.50;61.60
38265;DHT22;24062;47.480;8.768;2023-10-09T01:05:03;23.50;61.60
38265;DHT22;24062;47.480;8.768;2023-10-09T01:07:46;23.50;61.60
38265;DHT22;24062;47.480;8.768;2023-10-09T01:10:14;23.50;61.70
38265;DHT22;24062;47.480;8.768;2023-10-09T01:12:45;23.50;61.60
38265;DHT22;24062;47.480;8.768;2023-10-09T01:15:20;23.40;61.60
38265;DHT22;24062;47.480;8.768;2023-10-09T01:18:09;23.40;61.70
38265;DHT22;24062;47.480;8.768;2023-10-09T01:20:37;23.40;61.70
38265;DHT22;24062;47.480;8.768;2023-10-09T01:23:10;23.40;61.70
38265;DHT22;24062;47.480;8.768;2023-10-09T01:25:37;23.40;61.80
38265;DHT22;24062;47.480;8.768;2023-10-09T01:28:15;23.40;61.80
38265;DHT22;24062;47.480;8.768;2023-10-09T01:30:45;23.30;61.80
38265;DHT22;24062;47.480;8.768;2023-10-09T01:33:13;23.30;61.80
38265;DHT22;24062;47.480;8.768;2023-10-09T01:35:48;23.30;61.90
38265;DHT22;24062;47.480;8.768;2023-10-09T01:38:18;23.30;61.90
38265;DHT22;24062;47.480;8.768;2023-10-09T01:40:56;23.30;61.90
38265;DHT22;24062;47.480;8.768;2023-10-09T01:43:29;23.20;61.80
38265;DHT22;24062;47.480;8.768;2023-10-09T01:45:59;23.20;61.80
38265;DHT22;24062;47.480;8.768;2023-10-09T01:48:29;23.20;61.90
38265;DHT22;24062;47.480;8.768;2023-10-09T01:50:59;23.20;61.90
38265;DHT22;24062;47.480;8.768;2023-10-09T01:53:32;23.20;61.90
38265;DHT22;24062;47.480;8.768;2023-10-09T01:56:10;23.20;61.90
38265;DHT22;24062;47.480;8.768;2023-10-09T01:58:41;23.20;61.90
38265;DHT22;24062;47.480;8.768;2023-10-09T02:01:12;23.20;62.00
38265;DHT22;24062;47.480;8.768;2023-10-09T02:03:40;23.20;62.00
38265;DHT22;24062;47.480;8.768;2023-10-09T02:06:09;23.20;62.00
38265;DHT22;24062;47.480;8.768;2023-10-09T02:08:54;23.10;62.00
38265;DHT22;24062;47.480;8.768;2023-10-09T02:11:22;23.20;62.00
38265;DHT22;24062;47.480;8.768;2023-10-09T02:14:03;23.10;62.00
38265;DHT22;24062;47.480;8.768;2023-10-09T02:16:42;23.10;62.00
38265;DHT22;24062;47.480;8.768;2023-10-09T02:19:09;23.10;62.00
38265;DHT22;24062;47.480;8.768;2023-10-09T02:21:55;23.10;62.20
38265;DHT22;24062;47.480;8.768;2023-10-09T02:24:26;23.10;62.20
38265;DHT22;24062;47.480;8.768;2023-10-09T02:27:15;23.00;62.10
38265;DHT22;24062;47.480;8.768;2023-10-09T02:30:04;23.00;62.20
38265;DHT22;24062;47.480;8.768;2023-10-09T02:32:44;23.00;62.20
38265;DHT22;24062;47.480;8.768;2023-10-09T02:35:14;23.00;62.20
38265;DHT22;24062;47.480;8.768;2023-10-09T02:38:04;22.90;62.20
38265;DHT22;24062;47.480;8.768;2023-10-09T02:40:35;22.90;62.30
38265;DHT22;24062;47.480;8.768;2023-10-09T02:43:27;22.90;62.30
38265;DHT22;24062;47.480;8.768;2023-10-09T02:45:59;22.90;62.40
38265;DHT22;24062;47.480;8.768;2023-10-09T02:48:38;22.90;62.30
38265;DHT22;24062;47.480;8.768;2023-10-09T02:51:08;22.90;62.40
38265;DHT22;24062;47.480;8.768;2023-10-09T02:53:41;22.90;62.50
38265;DHT22;24062;47.480;8.768;2023-10-09T02:56:09;22.90;62.40
38265;DHT22;24062;47.480;8.768;2023-10-09T02:58:39;22.90;62.60
38265;DHT22;24062;47.480;8.768;2023-10-09T03:01:12;22.90;62.80
38265;DHT22;24062;47.480;8.768;2023-10-09T03:03:40;22.90;62.80
38265;DHT22;24062;47.480;8.768;2023-10-09T03:06:11;23.00;62.80
38265;DHT22;24062;47.480;8.768;2023-10-09T03:08:38;23.00;62.70
38265;DHT22;24062;47.480;8.768;2023-10-09T03:11:08;23.10;62.80
38265;DHT22;24062;47.480;8.768;2023-10-09T03:13:41;23.10;62.70
38265;DHT22;24062;47.480;8.768;2023-10-09T03:16:11;23.10;62.60
38265;DHT22;24062;47.480;8.768;2023-10-09T03:18:45;23.10;62.50
38265;DHT22;24062;47.480;8.768;2023-10-09T03:21:13;23.10;62.40
38265;DHT22;24062;47.480;8.768;2023-10-09T03:23:43;23.10;62.30
38265;DHT22;24062;47.480;8.768;2023-10-09T03:26:11;23.10;62.30
38265;DHT22;24062;47.480;8.768;2023-10-09T03:28:38;23.20;62.30
38265;DHT22;24062;47.480;8.768;2023-10-09T03:31:05;23.20;62.20
38265;DHT22;24062;47.480;8.768;2023-10-09T03:33:32;23.10;62.10
38265;DHT22;24062;47.480;8.768;2023-10-09T03:35:59;23.20;62.20
38265;DHT22;24062;47.480;8.768;2023-10-09T03:38:26;23.20;62.20
38265;DHT22;24062;47.480;8.768;2023-10-09T03:41:01;23.20;62.10
38265;DHT22;24062;47.480;8.768;2023-10-09T03:43:34;23.20;62.10
38265;DHT22;24062;47.480;8.768;2023-10-09T03:46:04;23.20;62.00
38265;DHT22;24062;47.480;8.768;2023-10-09T03:48:34;23.20;62.00
38265;DHT22;24062;47.480;8.768;2023-10-09T03:51:02;23.20;62.00
38265;DHT22;24062;47.480;8.768;2023-10-09T03:53:35;23.20;62.00
38265;DHT22;24062;47.480;8.768;2023-10-09T03:56:04;23.20;62.00
38265;DHT22;24062;47.480;8.768;2023-10-09T03:58:39;23.20;62.00
38265;DHT22;24062;47.480;8.768;2023-10-09T04:01:08;23.20;62.00
38265;DHT22;24062;47.480;8.768;2023-10-09T04:03:39;23.20;62.00
38265;DHT22;24062;47.480;8.768;2023-10-09T04:06:06;23.20;62.00
38265;DHT22;24062;47.480;8.768;2023-10-09T04:08:35;23.20;62.10
38265;DHT22;24062;47.480;8.768;2023-10-09T04:11:05;23.20;62.00
38265;DHT22;24062;47.480;8.768;2023-10-09T04:13:43;23.20;62.10
38265;DHT22;24062;47.480;8.768;2023-10-09T04:16:11;23.20;62.00
38265;DHT22;24062;47.480;8.768;2023-10-09T04:18:59;23.20;62.10
38265;DHT22;24062;47.480;8.768;2023-10-09T04:21:31;23.20;62.10
38265;DHT22;24062;47.480;8.768;2023-10-09T04:24:01;23.20;62.20
38265;DHT22;24062;47.480;8.768;2023-10-09T04:26:48;23.20;62.20
38265;DHT22;24062;47.480;8.768;2023-10-09T04:29:23;23.20;62.20
38265;DHT22;24062;47.480;8.768;2023-10-09T04:31:53;23.30;62.20
38265;DHT22;24062;47.480;8.768;2023-10-09T04:34:22;23.30;62.20
38265;DHT22;24062;47.480;8.768;2023-10-09T04:36:48;23.20;62.10
38265;DHT22;24062;47.480;8.768;2023-10-09T04:39:17;23.30;62.10
38265;DHT22;24062;47.480;8.768;2023-10-09T04:41:58;23.30;62.20
38265;DHT22;24062;47.480;8.768;2023-10-09T04:44:41;23.20;62.20
38265;DHT22;24062;47.480;8.768;2023-10-09T04:47:25;23.30;62.20
38265;DHT22;24062;47.480;8.768;2023-10-09T04:50:01;23.20;62.10
38265;DHT22;24062;47.480;8.768;2023-10-09T04:52:34;23.30;62.20
38265;DHT22;24062;47.480;8.768;2023-10-09T04:55:18;23.30;62.20
38265;DHT22;24062;47.480;8.768;2023-10-09T04:57:50;23.30;62.20
38265;DHT22;24062;47.480;8.768;2023-10-09T05:00:28;23.20;62.20
38265;DHT22;24062;47.480;8.768;2023-10-09T05:03:12;23.30;62.20
38265;DHT22;24062;47.480;8.768;2023-10-09T05:05:52;23.20;62.10
38265;DHT22;24062;47.480;8.768;2023-10-09T05:08:26;23.20;62.00
38265;DHT22;24062;47.480;8.768;2023-10-09T05:10:56;23.30;62.20
38265;DHT22;24062;47.480;8.768;2023-10-09T05:13:41;23.30;62.10
38265;DHT22;24062;47.480;8.768;2023-10-09T05:16:24;23.20;62.00
38265;DHT22;24062;47.480;8.768;2023-10-09T05:18:53;23.20;62.10
38265;DHT22;24062;47.480;8.768;2023-10-09T05:21:22;23.20;62.10
38265;DHT22;24062;47.480;8.768;2023-10-09T05:24:11;23.20;62.00
38265;DHT22;24062;47.480;8.768;2023-10-09T05:26:45;23.20;62.00
38265;DHT22;24062;47.480;8.768;2023-10-09T05:29:17;23.20;62.00
38265;DHT22;24062;47.480;8.768;2023-10-09T05:32:02;23.20;62.10
38265;DHT22;24062;47.480;8.768;2023-10-09T05:34:35;23.20;62.00
38265;DHT22;24062;47.480;8.768;2023-10-09T05:37:21;23.20;62.00
38265;DHT22;24062;47.480;8.768;2023-10-09T05:39:51;23.30;62.00
38265;DHT22;24062;47.480;8.768;2023-10-09T05:42:44;23.20;61.80
38265;DHT22;24062;47.480;8.768;2023-10-09T05:45:17;23.30;61.90
38265;DHT22;24062;47.480;8.768;2023-10-09T05:48:17;23.30;61.80
38265;DHT22;24062;47.480;8.768;2023-10-09T05:51:01;23.30;61.80
38265;DHT22;24062;47.480;8.768;2023-10-09T05:53:38;23.20;61.70
38265;DHT22;24062;47.480;8.768;2023-10-09T05:56:18;23.30;61.80
38265;DHT22;24062;47.480;8.768;2023-10-09T05:59:03;23.30;61.80
38265;DHT22;24062;47.480;8.768;2023-10-09T06:01:52;23.30;61.80
38265;DHT22;24062;47.480;8.768;2023-10-09T06:04:38;23.30;61.80
38265;DHT22;24062;47.480;8.768;2023-10-09T06:07:20;23.30;61.70
38265;DHT22;24062;47.480;8.768;2023-10-09T06:09:50;23.30;61.70
38265;DHT22;24062;47.480;8.768;2023-10-09T06:12:18;23.30;61.60
38265;DHT22;24062;47.480;8.768;2023-10-09T06:15:15;23.30;61.60
38265;DHT22;24062;47.480;8.768;2023-10-09T06:17:45;23.30;61.60
38265;DHT22;24062;47.480;8.768;2023-10-09T06:20:17;23.30;61.60
38265;DHT22;24062;47.480;8.768;2023-10-09T06:23:25;23.40;61.60
38265;DHT22;24062;47.480;8.768;2023-10-09T06:26:12;23.40;61.60
38265;DHT22;24062;47.480;8.768;2023-10-09T06:28:49;23.40;61.50
38265;DHT22;24062;47.480;8.768;2023-10-09T06:31:36;23.40;61.50
38265;DHT22;24062;47.480;8.768;2023-10-09T06:34:23;23.40;61.40
38265;DHT22;24062;47.480;8.768;2023-10-09T06:37:00;23.50;61.60
38265;DHT22;24062;47.480;8.768;2023-10-09T06:39:34;23.50;61.50
38265;DHT22;24062;47.480;8.768;2023-10-09T06:42:19;23.50;61.30
38265;DHT22;24062;47.480;8.768;2023-10-09T06:45:00;23.60;61.30
38265;DHT22;24062;47.480;8.768;2023-10-09T06:47:30;23.60;61.10
38265;DHT22;24062;47.480;8.768;2023-10-09T06:50:07;23.70;61.20
38265;DHT22;24062;47.480;8.768;2023-10-09T06:52:51;23.70;61.10
38265;DHT22;24062;47.480;8.768;2023-10-09T06:55:44;23.80;61.10
38265;DHT22;24062;47.480;8.768;2023-10-09T06:58:17;23.80;60.80
38265;DHT22;24062;47.480;8.768;2023-10-09T07:00:51;23.90;60.70
38265;DHT22;24062;47.480;8.768;2023-10-09T07:03:40;24.10;60.50
38265;DHT22;24062;47.480;8.768;2023-10-09T07:06:18;24.20;60.20
38265;DHT22;24062;47.480;8.768;2023-10-09T07:08:52;24.10;60.00
38265;DHT22;24062;47.480;8.768;2023-10-09T07:11:42;24.10;60.10
38265;DHT22;24062;47.480;8.768;2023-10-09T07:14:23;24.00;60.20
38265;DHT22;24062;47.480;8.768;2023-10-09T07:17:27;24.00;60.20
38265;DHT22;24062;47.480;8.768;2023-10-09T07:20:11;24.10;60.30
38265;DHT22;24062;47.480;8.768;2023-10-09T07:23:00;24.30;60.30
38265;DHT22;24062;47.480;8.768;2023-10-09T07:25:41;24.60;60.00
38265;DHT22;24062;47.480;8.768;2023-10-09T07:28:21;25.00;59.20
38265;DHT22;24062;47.480;8.768;2023-10-09T07:31:08;25.40;58.50
38265;DHT22;24062;47.480;8.768;2023-10-09T07:33:50;25.80;57.80
38265;DHT22;24062;47.480;8.768;2023-10-09T07:36:24;26.20;57.20
38265;DHT22;24062;47.480;8.768;2023-10-09T07:39:00;26.50;56.70
38265;DHT22;24062;47.480;8.768;2023-10-09T07:41:33;26.80;56.10
38265;DHT22;24062;47.480;8.768;2023-10-09T07:44:10;27.00;55.80
38265;DHT22;24062;47.480;8.768;2023-10-09T07:47:01;27.10;55.40
38265;DHT22;24062;47.480;8.768;2023-10-09T07:49:43;27.20;55.00
38265;DHT22;24062;47.480;8.768;2023-10-09T07:52:14;27.90;54.30
38265;DHT22;24062;47.480;8.768;2023-10-09T07:54:41;28.60;52.80
38265;DHT22;24062;47.480;8.768;2023-10-09T07:57:17;28.70;52.50
38265;DHT22;24062;47.480;8.768;2023-10-09T07:59:51;28.60;52.50
38265;DHT22;24062;47.480;8.768;2023-10-09T08:02:28;28.40;52.70
38265;DHT22;24062;47.480;8.768;2023-10-09T08:04:59;28.30;52.80
38265;DHT22;24062;47.480;8.768;2023-10-09T08:07:29;28.30;52.90
38265;DHT22;24062;47.480;8.768;2023-10-09T08:10:00;28.40;52.90
38265;DHT22;24062;47.480;8.768;2023-10-09T08:12:42;28.80;52.40
38265;DHT22;24062;47.480;8.768;2023-10-09T08:15:25;29.00;51.40
38265;DHT22;24062;47.480;8.768;2023-10-09T08:18:00;29.50;50.70
38265;DHT22;24062;47.480;8.768;2023-10-09T08:20:36;29.10;51.10
38265;DHT22;24062;47.480;8.768;2023-10-09T08:23:36;29.10;51.00
38265;DHT22;24062;47.480;8.768;2023-10-09T08:26:15;29.00;51.30
38265;DHT22;24062;47.480;8.768;2023-10-09T08:28:56;28.90;51.60
38265;DHT22;24062;47.480;8.768;2023-10-09T08:31:39;28.60;51.60
38265;DHT22;24062;47.480;8.768;2023-10-09T08:34:12;28.40;51.90
38265;DHT22;24062;47.480;8.768;2023-10-09T08:36:51;28.20;52.40
38265;DHT22;24062;47.480;8.768;2023-10-09T08:39:20;27.90;52.70
38265;DHT22;24062;47.480;8.768;2023-10-09T08:41:59;27.80;53.00
38265;DHT22;24062;47.480;8.768;2023-10-09T08:44:28;28.30;52.70
38265;DHT22;24062;47.480;8.768;2023-10-09T08:46:59;28.70;52.00
38265;DHT22;24062;47.480;8.768;2023-10-09T08:49:26;29.50;51.20
38265;DHT22;24062;47.480;8.768;2023-10-09T08:51:54;30.70;49.60
38265;DHT22;24062;47.480;8.768;2023-10-09T08:54:21;31.30;48.30
38265;DHT22;24062;47.480;8.768;2023-10-09T08:56:48;31.40;47.80
38265;DHT22;24062;47.480;8.768;2023-10-09T08:59:18;31.50;47.60
38265;DHT22;24062;47.480;8.768;2023-10-09T09:01:47;31.80;47.30
38265;DHT22;24062;47.480;8.768;2023-10-09T09:04:36;32.30;46.60
38265;DHT22;24062;47.480;8.768;2023-10-09T09:07:04;33.00;45.60
38265;DHT22;24062;47.480;8.768;2023-10-09T09:09:32;33.20;45.20
38265;DHT22;24062;47.480;8.768;2023-10-09T09:12:00;33.60;44.60
38265;DHT22;24062;47.480;8.768;2023-10-09T09:14:36;34.00;44.20
38265;DHT22;24062;47.480;8.768;2023-10-09T09:17:06;34.10;43.60
38265;DHT22;24062;47.480;8.768;2023-10-09T09:19:36;33.40;43.80
38265;DHT22;24062;47.480;8.768;2023-10-09T09:22:04;32.10;45.20
38265;DHT22;24062;47.480;8.768;2023-10-09T09:24:40;30.90;47.10
38265;DHT22;24062;47.480;8.768;2023-10-09T09:27:43;30.00;48.40
38265;DHT22;24062;47.480;8.768;2023-10-09T09:30:22;29.20;49.70
38265;DHT22;24062;47.480;8.768;2023-10-09T09:32:52;28.70;50.50
38265;DHT22;24062;47.480;8.768;2023-10-09T09:35:33;28.40;51.20
38265;DHT22;24062;47.480;8.768;2023-10-09T09:38:00;28.10;51.70
38265;DHT22;24062;47.480;8.768;2023-10-09T09:40:31;27.90;52.20
38265;DHT22;24062;47.480;8.768;2023-10-09T09:42:59;27.80;52.60
38265;DHT22;24062;47.480;8.768;2023-10-09T09:45:31;27.60;52.80
38265;DHT22;24062;47.480;8.768;2023-10-09T09:48:02;27.50;53.10
38265;DHT22;24062;47.480;8.768;2023-10-09T09:50:32;27.40;53.30
38265;DHT22;24062;47.480;8.768;2023-10-09T09:52:59;27.30;53.50
38265;DHT22;24062;47.480;8.768;2023-10-09T09:55:33;27.30;53.60
38265;DHT22;24062;47.480;8.768;2023-10-09T09:58:02;27.20;53.70
38265;DHT22;24062;47.480;8.768;2023-10-09T10:00:33;27.10;53.90
38265;DHT22;24062;47.480;8.768;2023-10-09T10:03:12;27.10;54.10
38265;DHT22;24062;47.480;8.768;2023-10-09T10:05:42;27.00;54.30
38265;DHT22;24062;47.480;8.768;2023-10-09T10:08:16;26.90;54.50
38265;DHT22;24062;47.480;8.768;2023-10-09T10:10:45;26.80;54.90
38265;DHT22;24062;47.480;8.768;2023-10-09T10:13:21;26.70;55.00
38265;DHT22;24062;47.480;8.768;2023-10-09T10:16:08;26.60;55.20
38265;DHT22;24062;47.480;8.768;2023-10-09T10:18:56;26.50;55.40
38265;DHT22;24062;47.480;8.768;2023-10-09T10:21:33;26.40;55.60
38265;DHT22;24062;47.480;8.768;2023-10-09T10:24:04;26.30;55.70
38265;DHT22;24062;47.480;8.768;2023-10-09T10:26:33;26.30;55.80
38265;DHT22;24062;47.480;8.768;2023-10-09T10:29:17;26.20;55.90
38265;DHT22;24062;47.480;8.768;2023-10-09T10:31:56;26.20;56.10
38265;DHT22;24062;47.480;8.768;2023-10-09T10:34:53;26.20;56.20
38265;DHT22;24062;47.480;8.768;2023-10-09T10:37:34;26.10;56.80
38265;DHT22;24062;47.480;8.768;2023-10-09T10:40:04;26.10;56.30
38265;DHT22;24062;47.480;8.768;2023-10-09T10:42:47;26.10;56.40
38265;DHT22;24062;47.480;8.768;2023-10-09T10:45:23;26.10;56.50
38265;DHT22;24062;47.480;8.768;2023-10-09T10:48:01;26.00;56.50
38265;DHT22;24062;47.480;8.768;2023-10-09T10:50:34;26.00;56.70
38265;DHT22;24062;47.480;8.768;2023-10-09T10:53:11;26.00;57.00
38265;DHT22;24062;47.480;8.768;2023-10-09T10:55:54;26.00;57.20
38265;DHT22;24062;47.480;8.768;2023-10-09T10:58:22;26.00;57.30
38265;DHT22;24062;47.480;8.768;2023-10-09T11:01:01;26.00;57.30
38265;DHT22;24062;47.480;8.768;2023-10-09T11:03:41;26.00;57.30
38265;DHT22;24062;47.480;8.768;2023-10-09T11:06:28;26.00;57.50
38265;DHT22;24062;47.480;8.768;2023-10-09T11:09:03;26.00;57.60
38265;DHT22;24062;47.480;8.768;2023-10-09T11:11:36;26.00;57.80
38265;DHT22;24062;47.480;8.768;2023-10-09T11:14:09;26.00;57.60
38265;DHT22;24062;47.480;8.768;2023-10-09T11:16:39;26.00;57.60
38265;DHT22;24062;47.480;8.768;2023-10-09T11:19:14;26.00;57.60
38265;DHT22;24062;47.480;8.768;2023-10-09T11:21:56;25.90;57.60
38265;DHT22;24062;47.480;8.768;2023-10-09T11:24:53;25.90;57.50
38265;DHT22;24062;47.480;8.768;2023-10-09T11:27:35;25.90;57.40
38265;DHT22;24062;47.480;8.768;2023-10-09T11:30:06;25.90;57.40
38265;DHT22;24062;47.480;8.768;2023-10-09T11:32:47;25.90;57.40
38265;DHT22;24062;47.480;8.768;2023-10-09T11:35:15;25.90;57.30
38265;DHT22;24062;47.480;8.768;2023-10-09T11:37:56;26.00;57.30
38265;DHT22;24062;47.480;8.768;2023-10-09T11:40:30;25.90;57.20
38265;DHT22;24062;47.480;8.768;2023-10-09T11:43:00;25.90;57.20
38265;DHT22;24062;47.480;8.768;2023-10-09T11:45:29;26.00;57.20
38265;DHT22;24062;47.480;8.768;2023-10-09T11:47:56;25.90;57.20
38265;DHT22;24062;47.480;8.768;2023-10-09T11:50:39;25.90;57.20
38265;DHT22;24062;47.480;8.768;2023-10-09T11:53:10;25.80;57.30
38265;DHT22;24062;47.480;8.768;2023-10-09T11:55:46;25.80;57.40
38265;DHT22;24062;47.480;8.768;2023-10-09T11:58:14;25.80;57.50
38265;DHT22;24062;47.480;8.768;2023-10-09T12:00:49;25.80;57.60
38265;DHT22;24062;47.480;8.768;2023-10-09T12:03:16;25.80;57.70
38265;DHT22;24062;47.480;8.768;2023-10-09T12:05:49;25.80;57.70
38265;DHT22;24062;47.480;8.768;2023-10-09T12:08:17;25.80;57.70
38265;DHT22;24062;47.480;8.768;2023-10-09T12:10:47;25.80;57.60
38265;DHT22;24062;47.480;8.768;2023-10-09T12:13:14;25.80;57.60
38265;DHT22;24062;47.480;8.768;2023-10-09T12:15:41;25.80;57.60
38265;DHT22;24062;47.480;8.768;2023-10-09T12:18:12;25.80;57.60
38265;DHT22;24062;47.480;8.768;2023-10-09T12:20:42;25.80;57.60
38265;DHT22;24062;47.480;8.768;2023-10-09T12:23:17;25.70;57.60
38265;DHT22;24062;47.480;8.768;2023-10-09T12:25:44;25.80;57.70
38265;DHT22;24062;47.480;8.768;2023-10-09T12:28:12;25.70;57.80
38265;DHT22;24062;47.480;8.768;2023-10-09T12:30:39;25.70;57.80
38265;DHT22;24062;47.480;8.768;2023-10-09T12:33:07;25.70;57.80
38265;DHT22;24062;47.480;8.768;2023-10-09T12:35:36;25.60;57.80
38265;DHT22;24062;47.480;8.768;2023-10-09T12:38:03;25.70;57.90
38265;DHT22;24062;47.480;8.768;2023-10-09T12:40:35;25.60;57.90
38265;DHT22;24062;47.480;8.768;2023-10-09T12:43:04;25.60;58.00
38265;DHT22;24062;47.480;8.768;2023-10-09T12:45:33;25.60;58.10
38265;DHT22;24062;47.480;8.768;2023-10-09T12:48:01;25.60;58.10
38265;DHT22;24062;47.480;8.768;2023-10-09T12:50:34;25.60;58.20
38265;DHT22;24062;47.480;8.768;2023-10-09T12:53:07;25.60;58.20
38265;DHT22;24062;47.480;8.768;2023-10-09T12:55:39;25.60;58.20
38265;DHT22;24062;47.480;8.768;2023-10-09T12:58:07;25.60;58.20
38265;DHT22;24062;47.480;8.768;2023-10-09T13:00:35;25.60;58.20
38265;DHT22;24062;47.480;8.768;2023-10-09T13:03:05;25.50;58.20
38265;DHT22;24062;47.480;8.768;2023-10-09T13:05:43;25.50;58.20
38265;DHT22;24062;47.480;8.768;2023-10-09T13:08:18;25.60;58.20
38265;DHT22;24062;47.480;8.768;2023-10-09T13:10:49;25.50;58.20
38265;DHT22;24062;47.480;8.768;2023-10-09T13:13:25;25.50;58.20
38265;DHT22;24062;47.480;8.768;2023-10-09T13:16:02;25.50;58.20
38265;DHT22;24062;47.480;8.768;2023-10-09T13:18:31;25.50;58.20
38265;DHT22;24062;47.480;8.768;2023-10-09T13:20:58;25.50;58.30
38265;DHT22;24062;47.480;8.768;2023-10-09T13:23:29;25.50;58.20
38265;DHT22;24062;47.480;8.768;2023-10-09T13:26:05;25.50;58.30
38265;DHT22;24062;47.480;8.768;2023-10-09T13:28:46;25.40;58.20
38265;DHT22;24062;47.480;8.768;2023-10-09T13:31:14;25.50;58.30
38265;DHT22;24062;47.480;8.768;2023-10-09T13:33:41;25.40;58.30
38265;DHT22;24062;47.480;8.768;2023-10-09T13:36:09;25.40;58.30
38265;DHT22;24062;47.480;8.768;2023-10-09T13:38:43;25.40;58.30
38265;DHT22;24062;47.480;8.768;2023-10-09T13:41:11;25.40;58.30
38265;DHT22;24062;47.480;8.768;2023-10-09T13:43:43;25.40;58.30
38265;DHT22;24062;47.480;8.768;2023-10-09T13:46:11;25.40;58.40
38265;DHT22;24062;47.480;8.768;2023-10-09T13:48:40;25.50;59.00
38265;DHT22;24062;47.480;8.768;2023-10-09T13:51:09;25.40;58.40
38265;DHT22;24062;47.480;8.768;2023-10-09T13:53:40;25.40;58.40
38265;DHT22;24062;47.480;8.768;2023-10-09T13:56:13;25.40;58.50
38265;DHT22;24062;47.480;8.768;2023-10-09T13:58:47;25.40;58.50
38265;DHT22;24062;47.480;8.768;2023-10-09T14:01:16;25.40;58.50
38265;DHT22;24062;47.480;8.768;2023-10-09T14:03:54;25.40;58.60
38265;DHT22;24062;47.480;8.768;2023-10-09T14:06:21;25.30;58.60
38265;DHT22;24062;47.480;8.768;2023-10-09T14:08:56;25.40;58.60
38265;DHT22;24062;47.480;8.768;2023-10-09T14:11:25;25.40;58.70
38265;DHT22;24062;47.480;8.768;2023-10-09T14:13:52;25.30;58.70
38265;DHT22;24062;47.480;8.768;2023-10-09T14:16:19;25.40;58.70
38265;DHT22;24062;47.480;8.768;2023-10-09T14:18:54;25.30;58.70
38265;DHT22;24062;47.480;8.768;2023-10-09T14:21:23;25.30;58.70
38265;DHT22;24062;47.480;8.768;2023-10-09T14:23:52;25.40;58.80
38265;DHT22;24062;47.480;8.768;2023-10-09T14:26:25;25.30;58.70
38265;DHT22;24062;47.480;8.768;2023-10-09T14:28:52;25.30;58.70
38265;DHT22;24062;47.480;8.768;2023-10-09T14:31:19;25.30;58.80
38265;DHT22;24062;47.480;8.768;2023-10-09T14:33:52;25.30;58.70
38265;DHT22;24062;47.480;8.768;2023-10-09T14:36:19;25.30;58.80
38265;DHT22;24062;47.480;8.768;2023-10-09T14:38:48;25.30;58.80
38265;DHT22;24062;47.480;8.768;2023-10-09T14:41:19;25.30;58.80
38265;DHT22;24062;47.480;8.768;2023-10-09T14:43:50;25.30;58.80
38265;DHT22;24062;47.480;8.768;2023-10-09T14:46:18;25.30;58.80
38265;DHT22;24062;47.480;8.768;2023-10-09T14:48:49;25.30;58.80
38265;DHT22;24062;47.480;8.768;2023-10-09T14:51:19;25.30;58.80
38265;DHT22;24062;47.480;8.768;2023-10-09T14:53:53;25.30;58.80
38265;DHT22;24062;47.480;8.768;2023-10-09T14:56:23;25.30;58.80
38265;DHT22;24062;47.480;8.768;2023-10-09T14:58:56;25.30;58.90
38265;DHT22;24062;47.480;8.768;2023-10-09T15:01:24;25.30;58.80
38265;DHT22;24062;47.480;8.768;2023-10-09T15:03:55;25.30;58.80
38265;DHT22;24062;47.480;8.768;2023-10-09T15:06:23;25.30;58.80
38265;DHT22;24062;47.480;8.768;2023-10-09T15:08:51;25.30;58.90
38265;DHT22;24062;47.480;8.768;2023-10-09T15:11:22;25.30;58.80
38265;DHT22;24062;47.480;8.768;2023-10-09T15:13:50;25.40;58.90
38265;DHT22;24062;47.480;8.768;2023-10-09T15:16:19;25.30;58.80
38265;DHT22;24062;47.480;8.768;2023-10-09T15:18:47;25.30;58.80
38265;DHT22;24062;47.480;8.768;2023-10-09T15:21:18;25.30;58.80
38265;DHT22;24062;47.480;8.768;2023-10-09T15:23:48;25.30;58.80
38265;DHT22;24062;47.480;8.768;2023-10-09T15:26:16;25.40;58.90
38265;DHT22;24062;47.480;8.768;2023-10-09T15:28:43;25.40;58.90
38265;DHT22;24062;47.480;8.768;2023-10-09T15:31:10;25.30;59.50
38265;DHT22;24062;47.480;8.768;2023-10-09T15:33:38;25.30;58.90
38265;DHT22;24062;47.480;8.768;2023-10-09T15:36:12;25.40;59.00
38265;DHT22;24062;47.480;8.768;2023-10-09T15:38:39;25.30;58.90
38265;DHT22;24062;47.480;8.768;2023-10-09T15:41:07;25.30;58.90
38265;DHT22;24062;47.480;8.768;2023-10-09T15:43:35;25.40;59.00
38265;DHT22;24062;47.480;8.768;2023-10-09T15:46:03;25.30;59.60
38265;DHT22;24062;47.480;8.768;2023-10-09T15:48:30;25.30;59.00
38265;DHT22;24062;47.480;8.768;2023-10-09T15:51:00;25.30;59.00
38265;DHT22;24062;47.480;8.768;2023-10-09T15:53:26;25.30;59.10
38265;DHT22;24062;47.480;8.768;2023-10-09T15:55:54;25.30;59.10
38265;DHT22;24062;47.480;8.768;2023-10-09T15:58:23;25.30;59.10
38265;DHT22;24062;47.480;8.768;2023-10-09T16:00:50;25.30;59.10
38265;DHT22;24062;47.480;8.768;2023-10-09T16:03:17;25.30;59.20
38265;DHT22;24062;47.480;8.768;2023-10-09T16:05:44;25.30;59.20
38265;DHT22;24062;47.480;8.768;2023-10-09T16:08:14;25.30;59.20
38265;DHT22;24062;47.480;8.768;2023-10-09T16:10:44;25.30;59.20
38265;DHT22;24062;47.480;8.768;2023-10-09T16:13:12;25.20;59.30